Grayling, Michigan
Current Conditions -  °F | °C
As of 3:15 AM on Tuesday 21 Oct 2014 (Local Time) from KGOV Reporting Station
Overcast Overcast  
Wind Chill: 40°   Ceiling: 800
Heat Index: 44°   Visibility: 7mi
Dew Point: 43°   Wind: 7mph
Humidity: 97%   Direction: 20°NNE
Pressure: 29.95"   Gusts: NA
Location:  44.66°N, 84.71°W
Report Text: KGOV 210715Z AUTO 02006KT 7SM BKN008 OVC013 07/06 A2995 RMK AO2 T00660062
Loading
Personal Weather Stations






























Interactive Weather Map
Tropical Storm Tracking
New forecast layout! Learn more

10-Day Weather Forecast

Advertisements
Track Severe Weather on mobile